Time;durP1;ratioP1;P1;durP2;ratioP2;P2;SDS_P1;SDS_P2;PMS_P1;PMS_P2;Temp;Humidity;BMP_temperature;BMP_pressure;BME280_temperature;BME280_humidity;BME280_pressure;Samples;Min_cycle;Max_cycle;Signal;HPM_P1;HPM_P2
2022/02/02 00:00:01;;;;;;;7.44;2.55;;;-0.10;99.90;;;-0.33;74.18;96804.88;172980;28;1475;-77
2022/02/02 00:00:16;;;;;;;7.23;2.37;;;-0.20;99.90;;;-0.28;74.37;96810.59;172548;28;1370;-78
2022/02/02 00:00:23;;;;;;;6.99;2.40;;;-0.20;99.90;;;-0.39;75.35;96788.72;172627;28;1226;-77
2022/02/02 00:00:29;;;;;;;6.84;2.42;;;-0.20;99.90;;;-0.46;75.06;96783.13;172449;28;1452;-77
2022/02/02 00:00:36;;;;;;;5.47;2.40;;;-0.20;99.90;;;-0.53;74.92;96768.81;172501;28;1465;-76
2022/02/02 00:00:43;;;;;;;5.57;2.43;;;-0.20;99.90;;;-0.32;75.14;96801.28;173716;28;952;-77
2022/02/02 00:00:51;;;;;;;4.70;2.16;;;-0.20;99.90;;;-0.43;75.00;96788.16;172504;28;1444;-77
2022/02/02 00:00:57;;;;;;;5.63;2.22;;;-0.20;99.90;;;-0.44;75.25;96791.78;172511;28;1141;-77
2022/02/02 00:01:04;;;;;;;8.40;2.33;;;-0.20;99.90;;;-0.47;75.46;96781.50;172570;28;1075;-77
2022/02/02 00:01:14;;;;;;;8.90;2.40;;;-0.20;99.90;;;-0.42;75.56;96789.84;171905;28;1285;-77
2022/02/02 00:01:28;;;;;;;9.37;2.77;;;-0.20;99.90;;;-0.43;75.53;96790.81;172701;28;1511;-77
2022/02/02 00:01:53;;;;;;;7.86;2.92;;;-0.20;99.90;;;-0.43;75.56;96789.00;173778;28;1267;-77
2022/02/02 00:02:09;;;;;;;6.46;2.80;;;-0.20;99.90;;;-0.36;75.68;96802.50;173387;28;1344;-77
2022/02/02 00:02:42;;;;;;;6.59;2.55;;;-0.20;99.90;;;-0.37;75.96;96798.19;173956;28;1344;-77
2022/02/02 00:02:51;;;;;;;8.05;2.83;;;-0.20;99.90;;;-0.38;75.83;96807.09;173214;28;1453;-77
2022/02/02 00:03:05;;;;;;;11.20;2.99;;;-0.20;99.90;;;-0.30;75.99;96815.19;173150;28;1375;-77
2022/02/02 00:03:11;;;;;;;9.48;2.78;;;-0.20;99.90;;;-0.34;76.29;96802.38;172967;28;3014;-77
2022/02/02 00:03:19;;;;;;;7.20;2.75;;;-0.20;99.90;;;-0.39;76.20;96796.66;173304;28;1012;-77
2022/02/02 00:03:27;;;;;;;6.26;2.71;;;-0.20;99.90;;;-0.39;76.27;96799.28;174095;28;1022;-77
2022/02/02 00:03:33;;;;;;;5.23;2.83;;;-0.10;99.90;;;-0.37;76.04;96807.94;173076;28;1747;-77
2022/02/02 00:03:39;;;;;;;5.45;2.70;;;-0.20;99.90;;;-0.39;75.85;96797.50;173231;28;1335;-78
2022/02/02 00:03:50;;;;;;;5.80;2.40;;;-0.20;99.90;;;-0.28;76.08;96823.81;172325;28;1577;-77
2022/02/02 00:03:58;;;;;;;5.93;2.25;;;-0.20;99.90;;;-0.38;75.85;96801.81;172481;28;2868;-77
2022/02/02 00:04:06;;;;;;;6.37;2.10;;;-0.20;99.90;;;-0.35;76.15;96805.97;171995;28;899;-77
2022/02/02 00:04:17;;;;;;;6.06;2.19;;;-0.20;99.90;;;-0.37;76.07;96798.19;173556;28;1267;-77
2022/02/02 00:04:27;;;;;;;7.06;2.61;;;-0.20;99.90;;;-0.41;75.85;96796.78;173734;28;1128;-77
2022/02/02 00:04:36;;;;;;;7.27;2.77;;;-0.20;99.90;;;-0.35;75.59;96798.88;173199;28;2791;-77
2022/02/02 00:04:47;;;;;;;7.17;2.71;;;-0.20;99.90;;;-0.37;75.64;96800.00;174506;28;1589;-78
2022/02/02 00:05:01;;;;;;;6.78;2.56;;;-0.20;99.90;;;-0.43;75.59;96782.88;172361;28;2921;-77
2022/02/02 00:05:38;;;;;;;6.49;2.40;;;-0.20;99.90;;;-0.36;76.00;96794.56;172535;28;1178;-77
2022/02/02 00:05:56;;;;;;;4.10;2.06;;;-0.20;99.90;;;-0.37;76.26;96798.19;173030;28;2763;-77
2022/02/02 00:06:13;;;;;;;4.95;2.20;;;-0.20;99.90;;;-0.33;75.43;96798.75;173950;28;1453;-77
2022/02/02 00:06:33;;;;;;;5.55;2.34;;;-0.20;99.90;;;-0.35;75.87;96793.59;172574;28;1358;-77
2022/02/02 00:06:54;;;;;;;6.32;2.53;;;-0.20;99.90;;;-0.30;75.77;96804.59;172359;28;2907;-77
2022/02/02 00:07:14;;;;;;;8.06;2.97;;;-0.20;99.90;;;-0.36;75.78;96794.56;173163;28;1333;-78
2022/02/02 00:07:36;;;;;;;5.45;2.63;;;-0.20;99.90;;;-0.28;75.92;96804.47;172635;28;1025;-76
2022/02/02 00:07:53;;;;;;;6.68;2.80;;;-0.20;99.90;;;-0.34;75.77;96797.06;171719;28;1708;-77
2022/02/02 00:08:13;;;;;;;7.43;2.89;;;-0.20;99.90;;;-0.35;75.58;96788.31;172404;28;1468;-77
2022/02/02 00:08:36;;;;;;;5.77;2.57;;;-0.10;99.90;;;-0.34;75.64;96791.78;173164;28;1019;-77
2022/02/02 00:08:55;;;;;;;5.66;2.59;;;-0.20;99.90;;;-0.34;75.42;96800.56;171861;28;1177;-77
2022/02/02 00:09:06;;;;;;;5.96;2.72;;;-0.20;99.90;;;-0.26;75.54;96805.19;173940;28;1213;-77
2022/02/02 00:09:16;;;;;;;6.68;2.57;;;-0.10;99.90;;;-0.57;75.20;96759.50;172509;28;2822;-77
2022/02/02 00:09:22;;;;;;;6.86;2.35;;;-0.10;99.90;;;-0.25;75.26;96812.94;171819;28;1231;-77
2022/02/02 00:09:28;;;;;;;7.28;2.28;;;-0.20;99.90;;;-0.34;75.63;96800.56;172406;28;1405;-77
2022/02/02 00:09:35;;;;;;;7.27;2.23;;;-0.10;99.90;;;-0.26;75.39;96810.47;173312;28;1291;-77
2022/02/02 00:09:50;;;;;;;6.64;2.40;;;-0.10;99.90;;;-0.20;75.45;96820.47;174509;28;1388;-77
2022/02/02 00:10:06;;;;;;;6.44;2.44;;;-0.10;99.90;;;-0.24;75.28;96813.78;174015;28;1194;-76
2022/02/02 00:10:37;;;;;;;5.32;2.40;;;-0.10;99.90;;;-0.37;75.37;96789.44;174843;28;1742;-77
2022/02/02 00:12:35;;;;;;;7.32;2.89;;;-0.10;99.90;;;-0.27;75.06;96795.56;172792;28;1194;-76
2022/02/02 00:12:46;;;;;;;7.38;2.80;;;-0.10;99.90;;;-0.27;75.10;96796.41;173128;28;1609;-76
2022/02/02 00:12:59;;;;;;;8.06;2.68;;;-0.10;99.90;;;-0.24;75.70;96800.56;173365;28;1443;-76
2022/02/02 00:13:15;;;;;;;9.04;2.91;;;-0.10;99.90;;;-0.30;75.72;96794.03;173098;28;1435;-76
2022/02/02 00:14:00;;;;;;;8.17;2.77;;;-0.10;99.90;;;-0.20;75.93;96818.66;172765;28;1178;-76
2022/02/02 00:15:52;;;;;;;6.78;2.85;;;-0.10;99.90;;;-0.24;75.57;96782.06;170333;29;1215;-76
2022/02/02 00:16:35;;;;;;;7.15;2.60;;;-0.10;99.90;;;-0.18;75.84;96790.28;171947;28;1094;-76
2022/02/02 00:16:55;;;;;;;5.14;2.46;;;-0.10;99.90;;;-0.18;75.84;96778.88;171799;28;2380;-76
2022/02/02 00:17:08;;;;;;;4.91;2.35;;;0.00;99.90;;;-0.13;75.75;96790.72;172276;28;1354;-76
2022/02/02 00:17:56;;;;;;;9.50;2.70;;;0.00;99.90;;;-0.15;75.56;96795.28;173302;28;1184;-76
2022/02/02 00:18:37;;;;;;;9.74;2.99;;;0.00;99.90;;;-0.11;76.11;96801.16;172627;28;1240;-76
2022/02/02 00:19:01;;;;;;;5.78;2.67;;;0.00;99.90;;;-0.17;75.65;96784.03;172909;28;1222;-76
2022/02/02 00:20:10;;;;;;;5.39;2.59;;;0.00;99.90;;;-0.19;76.00;96770.09;173949;28;1297;-76
2022/02/02 00:20:24;;;;;;;4.45;2.42;;;0.00;99.90;;;-0.18;76.24;96765.66;172498;28;1398;-77
2022/02/02 00:20:37;;;;;;;5.99;2.76;;;0.00;99.90;;;-0.28;76.14;96748.94;171807;28;1751;-76
2022/02/02 00:20:55;;;;;;;6.32;3.00;;;0.00;99.90;;;-0.18;76.26;96774.41;173307;28;1214;-76
2022/02/02 00:21:07;;;;;;;5.71;2.63;;;0.00;99.90;;;-0.19;76.43;96767.44;173404;28;1221;-76
2022/02/02 00:21:41;;;;;;;6.34;2.40;;;0.00;99.90;;;-0.17;76.10;96768.16;173550;28;1693;-76
2022/02/02 00:21:52;;;;;;;6.30;2.46;;;0.00;99.90;;;-0.21;76.13;96769.41;173968;28;1258;-77
2022/02/02 00:22:14;;;;;;;5.25;2.36;;;0.00;99.90;;;-0.19;76.22;96778.03;173961;28;2696;-77
2022/02/02 00:22:25;;;;;;;6.68;2.44;;;0.00;99.90;;;-0.27;76.47;96777.91;172578;28;1486;-77
2022/02/02 00:22:36;;;;;;;8.95;2.60;;;0.00;99.90;;;-0.29;76.62;96773.69;171843;28;1218;-77
2022/02/02 00:22:45;;;;;;;8.38;2.58;;;0.00;99.90;;;-0.29;76.79;96784.28;171941;28;1562;-77
2022/02/02 00:22:54;;;;;;;6.77;2.53;;;-0.10;99.90;;;-0.46;77.20;96769.91;173649;28;1499;-76
2022/02/02 00:23:02;;;;;;;6.70;2.50;;;-0.10;99.90;;;-0.28;76.80;96802.66;173668;28;1447;-76
2022/02/02 00:23:15;;;;;;;6.65;2.42;;;-0.10;99.90;;;-0.34;76.79;96797.91;173186;28;1358;-77
2022/02/02 00:23:26;;;;;;;8.93;2.50;;;-0.10;99.90;;;-0.37;76.97;96794.72;172581;28;1525;-77
2022/02/02 00:23:40;;;;;;;10.03;2.80;;;-0.20;99.90;;;-0.30;77.24;96811.69;171902;28;1305;-77
2022/02/02 00:23:50;;;;;;;8.30;2.66;;;-0.20;99.90;;;-0.30;77.13;96815.19;172642;28;1176;-76
2022/02/02 00:24:02;;;;;;;4.46;2.29;;;-0.10;99.90;;;-0.34;77.23;96808.50;173699;28;1088;-77
2022/02/02 00:24:20;;;;;;;4.21;2.30;;;-0.20;99.90;;;-0.41;76.91;96802.06;173687;28;1537;-77
2022/02/02 00:25:03;;;;;;;5.36;2.45;;;-0.20;99.90;;;-0.28;76.63;96815.03;171968;28;1188;-77
2022/02/02 00:25:15;;;;;;;7.29;2.74;;;-0.20;99.90;;;-0.29;76.60;96813.38;172794;28;2006;-77
2022/02/02 00:25:29;;;;;;;8.73;2.72;;;-0.20;99.90;;;-0.31;76.72;96804.75;172527;28;1666;-77
2022/02/02 00:25:46;;;;;;;6.95;2.51;;;-0.20;99.90;;;-0.30;76.73;96809.88;173921;28;2709;-77
2022/02/02 00:25:58;;;;;;;6.38;2.51;;;-0.20;99.90;;;-0.22;77.23;96825.09;173351;28;1203;-77
2022/02/02 00:26:10;;;;;;;7.63;2.64;;;-0.10;99.90;;;-0.30;76.99;96815.19;173992;28;1440;-77
2022/02/02 00:26:22;;;;;;;7.56;2.83;;;-0.10;99.90;;;-0.29;77.09;96818.66;172597;28;1202;-77
2022/02/02 00:26:36;;;;;;;7.34;2.86;;;-0.10;99.90;;;-0.29;76.58;96810.72;172430;28;1325;-77
2022/02/02 00:26:44;;;;;;;6.40;2.71;;;-0.10;99.90;;;-0.26;76.93;96821.84;172988;28;1200;-77
2022/02/02 00:26:55;;;;;;;5.30;2.45;;;-0.10;99.90;;;-0.35;76.78;96804.16;173172;28;1095;-77
2022/02/02 00:27:05;;;;;;;4.72;2.30;;;-0.10;99.90;;;-0.29;77.00;96816.84;173047;28;1215;-77
2022/02/02 00:27:13;;;;;;;4.60;2.20;;;-0.10;99.90;;;-0.27;76.79;96820.22;173283;28;910;-77
2022/02/02 00:27:22;;;;;;;4.90;2.37;;;-0.10;99.90;;;-0.39;77.03;96802.78;172569;28;1021;-77
2022/02/02 00:27:28;;;;;;;4.81;2.51;;;-0.10;99.90;;;-0.31;76.71;96816.13;173092;28;1361;-77
2022/02/02 00:27:37;;;;;;;5.05;2.70;;;-0.10;99.90;;;-0.48;77.24;96793.88;173132;28;1504;-77
2022/02/02 00:27:48;;;;;;;5.13;2.87;;;-0.10;99.90;;;-0.30;76.87;96819.63;172926;28;1351;-76
2022/02/02 00:27:57;;;;;;;4.83;2.61;;;-0.10;99.90;;;-0.36;76.97;96806.97;172997;28;1370;-77
2022/02/02 00:28:06;;;;;;;8.54;2.47;;;-0.10;99.90;;;-0.31;77.35;96810.84;171815;28;1416;-77
2022/02/02 00:28:12;;;;;;;7.63;2.19;;;-0.10;99.90;;;-0.26;76.87;96821.84;171882;28;1240;-77
2022/02/02 00:28:22;;;;;;;8.45;2.38;;;-0.10;99.90;;;-0.22;76.68;96825.94;172305;28;1413;-76
2022/02/02 00:28:33;;;;;;;6.85;2.79;;;-0.10;99.90;;;-0.23;77.02;96820.75;173174;28;1458;-77
2022/02/02 00:28:43;;;;;;;4.91;2.83;;;-0.10;99.90;;;-0.35;76.69;96798.88;173990;28;1217;-76
2022/02/02 00:28:54;;;;;;;4.94;2.80;;;-0.10;99.90;;;-0.26;76.67;96810.47;171882;28;1702;-76
2022/02/02 00:29:06;;;;;;;4.91;2.63;;;-0.10;99.90;;;-0.28;77.04;96804.47;172951;28;1331;-77
2022/02/02 00:29:18;;;;;;;5.75;2.89;;;-0.10;99.90;;;-0.20;76.75;96823.13;173497;28;1639;-77
2022/02/02 00:29:31;;;;;;;5.94;2.80;;;-0.10;99.90;;;-0.28;76.80;96800.03;173795;28;1674;-77
2022/02/02 00:29:42;;;;;;;6.11;2.36;;;-0.10;99.90;;;-0.20;76.81;96812.53;174452;28;1639;-77
2022/02/02 00:29:54;;;;;;;5.40;2.24;;;-0.10;99.90;;;-0.26;76.45;96798.06;173941;28;1166;-77
2022/02/02 00:30:03;;;;;;;7.20;2.52;;;0.00;99.90;;;-0.23;76.34;96810.19;171739;28;1469;-77
2022/02/02 00:30:14;;;;;;;9.80;2.70;;;0.00;99.90;;;-0.19;76.29;96812.41;171879;28;1973;-78
2022/02/02 00:30:24;;;;;;;11.89;2.78;;;-0.10;99.90;;;-0.14;76.58;96818.13;173021;28;2782;-77
2022/02/02 00:30:35;;;;;;;8.63;2.60;;;0.00;99.90;;;-0.21;76.54;96803.81;172525;28;1319;-77
2022/02/02 00:30:41;;;;;;;7.19;2.61;;;-0.10;99.90;;;-0.20;76.83;96810.72;171887;28;1215;-77
2022/02/02 00:30:47;;;;;;;5.72;2.75;;;0.00;99.90;;;-0.17;76.60;96807.84;172410;28;1215;-77
2022/02/02 00:30:53;;;;;;;4.80;2.60;;;0.00;99.90;;;-0.35;76.42;96780.38;172543;28;1235;-77
2022/02/02 00:31:04;;;;;;;6.17;2.63;;;0.00;99.90;;;-0.19;76.21;96804.47;172841;28;1327;-77
2022/02/02 00:31:15;;;;;;;6.39;2.63;;;0.00;99.90;;;-0.23;76.14;96797.81;174543;28;1372;-77
2022/02/02 00:31:27;;;;;;;6.75;2.58;;;0.00;99.90;;;-0.22;76.25;96796.84;172532;28;3090;-76
2022/02/02 00:31:40;;;;;;;7.28;2.63;;;0.00;99.90;;;-0.16;76.18;96809.50;171994;28;1189;-77
2022/02/02 00:31:52;;;;;;;7.54;2.78;;;0.00;99.90;;;-0.16;76.29;96803.38;174645;28;1201;-77
2022/02/02 00:32:56;;;;;;;6.57;2.76;;;0.00;99.90;;;-0.15;76.42;96802.38;171222;28;1194;-77
2022/02/02 00:33:19;;;;;;;7.03;2.61;;;0.00;99.90;;;-0.17;76.00;96791.97;170283;28;1573;-77
2022/02/02 00:33:30;;;;;;;6.79;2.72;;;0.00;99.90;;;-0.13;75.88;96800.44;172496;28;1532;-77
2022/02/02 00:33:42;;;;;;;5.15;2.46;;;0.00;99.90;;;-0.16;76.03;96798.94;172471;28;1477;-77
2022/02/02 00:33:55;;;;;;;6.51;2.40;;;0.00;99.90;;;-0.15;75.99;96792.66;172207;28;1397;-77
2022/02/02 00:34:05;;;;;;;6.41;2.38;;;0.00;99.90;;;-0.10;75.97;96797.53;172683;28;1209;-77
2022/02/02 00:34:16;;;;;;;5.76;2.47;;;0.00;99.90;;;-0.17;76.05;96780.56;172463;28;2907;-77
2022/02/02 00:34:26;;;;;;;4.57;2.37;;;0.00;99.90;;;-0.12;75.77;96794.19;172870;28;1440;-77
2022/02/02 00:34:32;;;;;;;5.80;2.70;;;0.00;99.90;;;-0.09;75.75;96797.38;173091;28;1702;-77
2022/02/02 00:34:38;;;;;;;6.30;2.67;;;0.00;99.90;;;-0.11;75.83;96790.56;171783;28;1430;-77
2022/02/02 00:34:44;;;;;;;6.17;2.70;;;0.00;99.90;;;-0.14;75.81;96791.69;173108;28;1469;-77
2022/02/02 00:34:50;;;;;;;6.33;3.00;;;0.00;99.90;;;-0.08;76.09;96800.88;173701;28;1410;-77
2022/02/02 00:34:57;;;;;;;6.40;3.03;;;0.00;99.90;;;-0.09;75.76;96799.19;173290;28;804;-78
2022/02/02 00:35:04;;;;;;;6.73;2.77;;;0.00;99.90;;;-0.04;75.76;96803.09;172724;28;1332;-78
2022/02/02 00:35:12;;;;;;;5.67;2.63;;;0.00;99.90;;;-0.10;76.00;96795.72;173605;28;1342;-77
2022/02/02 00:35:23;;;;;;;5.63;2.55;;;0.00;99.90;;;-0.08;75.91;96800.88;174751;28;1391;-77
2022/02/02 00:35:34;;;;;;;5.79;2.65;;;0.00;99.90;;;-0.04;75.85;96808.38;173144;28;1545;-77
2022/02/02 00:35:44;;;;;;;6.90;3.06;;;0.00;99.90;;;-0.10;75.68;96801.00;172305;28;1652;-77
2022/02/02 00:36:10;;;;;;;9.24;3.11;;;0.10;99.90;;;-0.03;75.68;96802.13;172646;28;1126;-77
2022/02/02 00:36:21;;;;;;;8.23;2.81;;;0.10;99.90;;;-0.09;75.60;96797.38;173822;28;1486;-77
2022/02/02 00:36:36;;;;;;;5.59;2.36;;;0.10;99.90;;;-0.12;75.78;96788.91;172507;28;1751;-77
2022/02/02 00:36:48;;;;;;;4.50;2.16;;;0.10;99.90;;;0.00;75.57;96812.41;172301;28;2807;-76
2022/02/02 00:36:58;;;;;;;4.53;2.24;;;0.10;99.90;;;-0.04;76.23;96805.75;173233;28;1347;-77
2022/02/02 00:37:04;;;;;;;4.39;2.24;;;0.10;99.90;;;-0.16;76.13;96783.06;172313;28;2675;-77
2022/02/02 00:37:11;;;;;;;5.13;2.23;;;0.10;99.90;;;-0.12;75.81;96796.84;173918;28;1518;-76
2022/02/02 00:37:18;;;;;;;5.13;2.28;;;0.10;99.90;;;-0.06;76.01;96801.59;173865;28;938;-77
2022/02/02 00:37:24;;;;;;;5.46;2.30;;;0.10;99.90;;;-0.03;76.04;96812.72;173317;28;891;-76
2022/02/02 00:37:30;;;;;;;6.07;2.40;;;0.10;99.90;;;-0.08;75.98;96799.06;173433;28;1140;-76
2022/02/02 00:37:36;;;;;;;6.03;2.30;;;0.10;99.90;;;-0.05;76.15;96809.34;172476;28;1415;-77
2022/02/02 00:37:42;;;;;;;5.07;2.30;;;0.10;99.90;;;-0.30;75.87;96764.94;172458;28;1025;-77
2022/02/02 00:37:48;;;;;;;4.47;2.15;;;0.10;99.90;;;-0.08;75.91;96799.06;173148;28;1317;-77
2022/02/02 00:37:54;;;;;;;4.25;2.17;;;0.10;99.90;;;-0.14;75.91;96791.69;172801;28;910;-77
2022/02/02 00:38:00;;;;;;;7.07;2.35;;;0.10;99.90;;;-0.01;75.99;96812.59;173953;28;1158;-77
2022/02/02 00:38:06;;;;;;;6.80;2.38;;;0.10;99.90;;;-0.11;76.00;96793.22;174561;28;1034;-76
2022/02/02 00:38:12;;;;;;;8.07;2.57;;;0.10;99.90;;;0.03;76.03;96816.63;173985;28;1922;-77
2022/02/02 00:38:18;;;;;;;8.70;2.77;;;0.10;99.90;;;0.03;75.83;96810.50;172583;28;911;-77
2022/02/02 00:38:24;;;;;;;9.13;2.72;;;0.10;99.90;;;-0.05;76.17;96801.41;172311;28;1367;-77
2022/02/02 00:38:30;;;;;;;6.10;2.36;;;0.10;99.90;;;0.00;75.88;96806.31;172567;28;891;-77
2022/02/02 00:38:36;;;;;;;5.97;2.27;;;0.10;99.90;;;-0.01;75.95;96810.78;172980;28;1698;-77
2022/02/02 00:38:42;;;;;;;5.22;2.17;;;0.10;99.90;;;-0.03;75.74;96802.13;172535;28;1215;-77
2022/02/02 00:38:48;;;;;;;4.82;1.90;;;0.10;99.90;;;-0.05;76.06;96797.94;173834;28;1226;-76
2022/02/02 00:38:54;;;;;;;6.53;1.92;;;0.20;99.90;;;-0.12;75.90;96789.75;172734;28;1431;-77
2022/02/02 00:39:00;;;;;;;7.03;2.17;;;0.10;99.90;;;-0.11;76.08;96791.41;172468;28;1231;-77
2022/02/02 00:39:05;;;;;;;7.40;2.40;;;0.20;99.90;;;-0.02;75.60;96800.31;174026;28;1231;-77
2022/02/02 00:39:11;;;;;;;6.78;2.35;;;0.10;99.90;;;-0.09;76.04;96789.44;175131;28;1276;-76
2022/02/02 00:39:17;;;;;;;6.75;2.50;;;0.10;99.90;;;-0.02;75.79;96817.03;174618;28;1039;-77
2022/02/02 00:39:28;;;;;;;5.13;2.40;;;0.20;99.90;;;-0.02;76.04;96806.47;172610;28;950;-77
2022/02/02 00:39:34;;;;;;;5.82;2.44;;;0.10;99.90;;;-0.05;75.60;96798.78;172162;28;1640;-77
2022/02/02 00:39:40;;;;;;;6.10;2.40;;;0.20;99.90;;;0.03;75.87;96819.25;173725;28;1378;-77
2022/02/02 00:39:47;;;;;;;6.55;2.40;;;0.20;99.90;;;0.07;75.71;96819.81;173218;28;1214;-77
2022/02/02 00:39:53;;;;;;;7.35;2.75;;;0.10;99.90;;;-0.11;76.07;96787.94;172529;28;1094;-77
2022/02/02 00:39:58;;;;;;;6.75;2.75;;;0.20;99.90;;;0.03;76.04;96818.44;173103;28;1516;-78
2022/02/02 00:40:06;;;;;;;6.07;2.58;;;0.20;99.90;;;-0.01;75.98;96804.66;173167;28;1228;-77
2022/02/02 00:40:12;;;;;;;6.12;2.82;;;0.20;99.90;;;-0.02;75.76;96810.91;173090;28;1061;-77
2022/02/02 00:40:18;;;;;;;6.20;2.97;;;0.20;99.90;;;0.06;75.98;96820.78;173209;28;1450;-77
2022/02/02 00:40:24;;;;;;;6.15;2.60;;;0.20;99.90;;;-0.01;75.94;96812.59;173199;28;1381;-77
2022/02/02 00:40:30;;;;;;;7.25;2.67;;;0.20;99.90;;;0.06;75.57;96818.13;173885;28;1329;-77
2022/02/02 00:40:36;;;;;;;7.75;2.55;;;0.20;99.90;;;-0.06;75.97;96805.06;173201;28;1587;-77
2022/02/02 00:40:42;;;;;;;7.63;2.60;;;0.20;99.90;;;-0.12;75.67;96795.03;172621;28;978;-77
2022/02/02 00:40:47;;;;;;;6.60;2.45;;;0.20;99.90;;;0.03;75.67;96813.13;173231;28;1203;-77
2022/02/02 00:40:53;;;;;;;5.97;2.47;;;0.20;99.90;;;0.03;75.69;96813.13;173354;28;946;-77
2022/02/02 00:40:59;;;;;;;5.40;2.40;;;0.20;99.90;;;0.04;75.68;96818.28;171656;28;1344;-77
2022/02/02 00:41:05;;;;;;;5.13;2.33;;;0.20;99.90;;;-0.03;76.14;96799.47;173176;28;1653;-77
2022/02/02 00:41:12;;;;;;;4.93;2.10;;;0.20;99.90;;;-0.01;75.72;96802.84;173208;28;990;-76
2022/02/02 00:41:18;;;;;;;5.28;2.10;;;0.20;99.90;;;0.01;75.95;96813.25;174370;28;1558;-77
2022/02/02 00:41:24;;;;;;;6.47;2.10;;;0.20;99.90;;;0.05;75.98;96813.84;172463;28;1267;-77
2022/02/02 00:41:30;;;;;;;5.65;2.08;;;0.20;99.90;;;0.04;75.94;96812.16;173801;28;1075;-77
2022/02/02 00:41:36;;;;;;;6.28;2.20;;;0.20;99.90;;;0.00;75.94;96799.19;173153;28;1418;-77
2022/02/02 00:41:42;;;;;;;5.97;2.10;;;0.20;99.90;;;0.05;75.90;96808.56;172292;28;1450;-77
2022/02/02 00:41:48;;;;;;;5.88;2.22;;;0.20;99.90;;;-0.05;75.79;96793.47;172587;28;966;-78
2022/02/02 00:41:57;;;;;;;5.05;2.33;;;0.20;99.90;;;0.09;75.86;96815.22;172495;28;985;-77
2022/02/02 00:42:03;;;;;;;4.70;2.36;;;0.20;99.90;;;0.02;75.51;96800.88;172503;28;1455;-77
2022/02/02 00:42:09;;;;;;;4.57;2.57;;;0.20;99.90;;;-0.02;75.63;96792.38;171970;28;1028;-78
2022/02/02 00:42:15;;;;;;;4.82;2.60;;;0.20;99.90;;;0.02;75.65;96800.88;172536;28;1391;-78
2022/02/02 00:42:23;;;;;;;5.78;2.53;;;0.20;99.90;;;0.08;75.63;96805.63;172487;28;1174;-77
2022/02/02 00:42:30;;;;;;;7.05;2.63;;;0.20;99.90;;;0.06;75.49;96804.91;172550;28;950;-77
2022/02/02 00:42:36;;;;;;;7.00;2.43;;;0.20;99.90;;;-0.03;75.36;96796.84;172349;28;1264;-77
2022/02/02 00:42:44;;;;;;;6.60;2.27;;;0.20;99.90;;;-0.04;75.82;96784.59;173439;28;1385;-77
2022/02/02 00:42:51;;;;;;;7.37;2.17;;;0.20;99.90;;;0.05;75.46;96795.31;173199;28;1161;-77
2022/02/02 00:42:57;;;;;;;5.10;1.80;;;0.20;99.90;;;0.05;75.56;96801.44;173224;28;1090;-77
2022/02/02 00:43:03;;;;;;;5.20;1.85;;;0.20;99.90;;;-0.02;75.30;96790.56;172994;28;1297;-77
2022/02/02 00:43:09;;;;;;;5.17;1.93;;;0.20;99.90;;;0.03;75.65;96794.63;171829;28;1331;-77
2022/02/02 00:43:15;;;;;;;4.15;2.22;;;0.20;99.90;;;-0.01;75.33;96797.56;172784;28;1007;-77
2022/02/02 00:43:22;;;;;;;3.70;2.30;;;0.20;99.90;;;-0.02;75.43;96787.94;173105;28;1315;-77
2022/02/02 00:43:28;;;;;;;4.22;2.40;;;0.20;99.90;;;0.08;75.49;96803.81;173519;28;1583;-77
2022/02/02 00:43:34;;;;;;;4.15;2.40;;;0.20;99.90;;;0.10;75.65;96811.63;172568;28;1443;-77
2022/02/02 00:43:43;;;;;;;3.67;2.17;;;0.20;99.90;;;0.10;75.44;96812.44;172940;28;1332;-77
2022/02/02 00:43:55;;;;;;;3.86;2.03;;;0.20;99.90;;;-0.06;75.34;96777.78;172352;28;1747;-77
2022/02/02 00:44:03;;;;;;;4.94;2.06;;;0.20;99.90;;;0.00;75.44;96790.44;173878;28;1203;-77
2022/02/02 00:44:09;;;;;;;6.18;2.30;;;0.20;99.90;;;0.09;75.19;96800.19;173092;28;1369;-77
2022/02/02 00:44:18;;;;;;;6.10;2.23;;;0.20;99.90;;;0.08;75.40;96789.75;174010;28;839;-77
2022/02/02 00:44:26;;;;;;;5.91;2.26;;;0.20;99.90;;;0.09;75.48;96794.06;173732;28;1204;-77
2022/02/02 00:44:33;;;;;;;4.60;2.11;;;0.20;99.90;;;0.12;75.78;96799.06;173275;28;1351;-77
2022/02/02 00:44:47;;;;;;;5.33;2.00;;;0.20;99.90;;;0.06;75.68;96789.03;172553;28;1510;-77
2022/02/02 00:44:54;;;;;;;5.32;2.11;;;0.20;99.90;;;0.07;75.69;96791.53;171777;28;1445;-77
2022/02/02 00:45:00;;;;;;;5.98;2.12;;;0.20;99.90;;;0.13;75.47;96795.44;171442;28;1367;-77
2022/02/02 00:45:07;;;;;;;6.00;2.33;;;0.20;99.90;;;0.10;75.57;96790.44;173168;28;1155;-77
2022/02/02 00:45:13;;;;;;;6.13;2.40;;;0.20;99.90;;;0.07;75.29;96788.06;173028;28;1475;-76
2022/02/02 00:45:19;;;;;;;6.43;2.40;;;0.20;99.90;;;0.19;75.74;96808.13;172520;28;1493;-77
2022/02/02 00:45:32;;;;;;;6.40;2.40;;;0.20;99.90;;;0.20;75.40;96809.81;172798;28;895;-76
2022/02/02 00:45:44;;;;;;;5.22;2.47;;;0.20;99.90;;;0.19;75.77;96802.84;171220;28;1351;-77
2022/02/02 00:45:50;;;;;;;5.07;2.56;;;0.20;99.90;;;0.20;75.67;96809.81;174234;28;1547;-76
2022/02/02 00:45:57;;;;;;;4.93;2.65;;;0.30;99.90;;;0.16;75.17;96805.75;173613;28;1484;-77
2022/02/02 00:46:03;;;;;;;4.93;2.27;;;0.30;99.90;;;0.17;75.46;96800.31;173536;28;926;-77
2022/02/02 00:46:09;;;;;;;4.83;2.07;;;0.30;99.90;;;0.05;75.43;96788.22;172928;28;1428;-76
2022/02/02 00:46:15;;;;;;;4.53;2.00;;;0.30;99.90;;;0.07;75.22;96793.34;173963;28;1312;-77
2022/02/02 00:46:24;;;;;;;4.57;1.93;;;0.30;99.90;;;0.09;75.52;96794.06;173332;28;1413;-77
2022/02/02 00:46:31;;;;;;;4.71;1.92;;;0.30;99.90;;;0.19;75.51;96808.13;174080;28;1583;-77
2022/02/02 00:46:37;;;;;;;4.57;2.15;;;0.30;99.90;;;0.08;75.29;96787.94;172389;28;896;-76
2022/02/02 00:46:43;;;;;;;5.55;2.22;;;0.30;99.90;;;0.14;75.63;96800.59;172703;28;2294;-76
2022/02/02 00:46:49;;;;;;;6.57;2.30;;;0.30;99.90;;;0.02;75.49;96783.19;173161;28;1301;-77
2022/02/02 00:46:56;;;;;;;6.27;2.27;;;0.30;99.90;;;0.00;75.81;96779.88;172456;28;1241;-77
2022/02/02 00:47:02;;;;;;;6.15;2.15;;;0.30;99.90;;;0.12;75.89;96797.25;172568;28;990;-77
2022/02/02 00:47:13;;;;;;;5.66;2.32;;;0.30;99.90;;;0.08;75.68;96787.94;172155;28;1979;-77
2022/02/02 00:47:23;;;;;;;4.94;2.50;;;0.30;99.90;;;0.14;75.59;96803.25;172495;28;1446;-77
2022/02/02 00:47:36;;;;;;;5.53;2.67;;;0.30;99.90;;;0.13;75.91;96800.75;173573;28;2529;-76
2022/02/02 00:47:47;;;;;;;5.50;2.65;;;0.30;99.90;;;0.12;75.50;96796.41;173061;28;1518;-77
2022/02/02 00:47:52;;;;;;;5.73;2.46;;;0.30;99.90;;;0.07;75.45;96785.41;172239;28;1258;-77
2022/02/02 00:48:01;;;;;;;5.30;2.45;;;0.30;99.90;;;0.21;76.01;96809.66;171823;28;1213;-77
2022/02/02 00:48:07;;;;;;;7.40;2.37;;;0.30;99.90;;;0.18;75.52;96801.16;173004;28;977;-77
2022/02/02 00:48:16;;;;;;;7.45;2.38;;;0.30;99.90;;;0.21;75.53;96807.00;172554;28;859;-77
2022/02/02 00:48:26;;;;;;;7.34;2.34;;;0.30;99.90;;;0.16;75.39;96796.00;172590;28;1410;-77
2022/02/02 00:48:33;;;;;;;10.43;2.51;;;0.30;99.90;;;0.18;75.59;96790.56;172473;28;1113;-77
2022/02/02 00:48:40;;;;;;;9.57;2.63;;;0.30;99.90;;;0.12;75.61;96783.19;172613;28;923;-77
2022/02/02 00:48:49;;;;;;;9.32;2.53;;;0.30;99.90;;;0.09;75.61;96775.53;171893;28;1211;-77
2022/02/02 00:49:03;;;;;;;7.17;2.43;;;0.30;99.90;;;0.17;75.33;96787.09;173140;28;1363;-77
2022/02/02 00:49:09;;;;;;;6.19;2.19;;;0.30;99.90;;;0.17;75.14;96795.03;174494;28;1426;-77
2022/02/02 00:49:15;;;;;;;7.00;2.13;;;0.30;99.90;;;0.26;75.09;96806.59;175130;28;1230;-77
2022/02/02 00:49:21;;;;;;;7.10;2.10;;;0.30;99.90;;;0.12;75.25;96786.66;173207;28;1516;-77
2022/02/02 00:49:27;;;;;;;7.97;2.27;;;0.30;99.90;;;0.16;75.17;96788.06;173413;28;1323;-77
2022/02/02 00:49:34;;;;;;;6.88;2.22;;;0.30;99.90;;;0.16;75.41;96787.22;173407;28;1472;-77
2022/02/02 00:49:40;;;;;;;7.07;2.40;;;0.30;99.90;;;0.20;75.32;96794.75;172789;28;1469;-77
2022/02/02 00:49:48;;;;;;;6.20;2.47;;;0.30;99.90;;;0.08;75.10;96773.88;172545;28;1527;-77
2022/02/02 00:49:55;;;;;;;4.73;2.50;;;0.30;99.90;;;0.19;75.33;96790.44;171777;28;935;-77
2022/02/02 00:50:01;;;;;;;4.90;2.57;;;0.30;99.90;;;0.17;74.95;96786.25;171929;28;931;-76
2022/02/02 00:50:07;;;;;;;4.88;2.53;;;0.30;99.90;;;0.23;75.31;96798.94;172868;28;1205;-77
2022/02/02 00:50:14;;;;;;;6.10;2.68;;;0.30;99.90;;;0.14;75.39;96783.91;172003;28;899;-77
2022/02/02 00:50:20;;;;;;;6.16;2.58;;;0.30;99.90;;;0.22;75.21;96797.25;172219;28;1366;-77
2022/02/02 00:50:27;;;;;;;5.72;2.40;;;0.30;99.90;;;0.29;75.36;96811.59;172527;28;1372;-77
2022/02/02 00:50:33;;;;;;;5.97;2.50;;;0.30;99.90;;;0.30;74.88;96808.00;171707;28;1453;-78
2022/02/02 00:50:39;;;;;;;5.40;2.40;;;0.40;99.90;;;0.20;75.36;96788.63;171812;28;1254;-77
2022/02/02 00:50:46;;;;;;;5.20;2.50;;;0.30;99.90;;;0.31;75.35;96809.66;172595;28;918;-77